Rock Hill, SC (29730)

11:49 AM EST on December 10, 2016 (GMT -0500)
Country Club Estates | | Change Station

Elev 591 ft 34.89 °N, 81.03 °W | Updated 35 seconds ago

Clear
Clear
40.6 °F
Feels Like 41 °F
N
1.3
Wind Variable Wind from South
Gusts 2.7 mph

Today
High -- | Low -- °F
--% Chance of Precip.
Yesterday
High -- | Low -- °F
Precip. -- in
Pressure 30.59 in
Visibility 10.0 miles
Clouds Clear
Windchill 41 °F
Dew Point 20 °F
Humidity 43%
Rainfall 0.00 in
Snow Depth Not available.
7:21 AM 5:12 PM
Waxing Gibbous, 85% visible
METAR KUZA 101554Z AUTO 36003KT 10SM CLR 03/M08 A3056 RMK AO2 SLP358 T00331078
Pressure 30.59 in
Visibility 10.0 miles
Clouds Clear
Windchill 41 °F
Dew Point 20 °F
Humidity 43%
Rainfall 0.00 in
Snow Depth Not available.
7:21 AM 5:12 PM
Waxing Gibbous, 85% visible
METAR KUZA 101554Z AUTO 36003KT 10SM CLR 03/M08 A3056 RMK AO2 SLP358 T00331078

10-Day Weather Forecast

Almanac

Astronomy

Dec. 10, 2016 Rise Set
Actual Time
Civil Twilight
Nautical Twilight
Astronomical Twilight
Moon
Length of Visible Light
Length of Day
Tomorrow will be .
, % of the Moon is Illuminated

Today's Extremes

State Highs State Lows

Community

WunderPhotos

Upload Photos

1,956,569 photos uploaded!

WunderBlog® & News

Nearby

Air Quality

  Air Quality AQ Index Pollutant
Not available.

Snow Depth

Station Depth Elevation

Earthquake Activity

City Distance Mag. Time & Date
Minimum magnitude displayed is 2.5.

Coastal Water Temperatures

Place Temperature

Stations

Nearby Weather Stations

Station Location Temp. Windchill Dew Point Humidity Wind Precip. Elev Updated Type
                   

Watches & Warnings

There are currently no watches in effect.